Airport View

Enter AWOS ICAO identifier for current METAR.

ex. KFNL

KJYR 191835Z AUTO 09003KT 10SM BKN020 BKN037 BKN049 20/16 A2981 RMK AO2

19 Jun 2019 18:51

Frequency: 124.175

Phone: 402-362-3785

Other Area AWOS: KAUH - KGRI - KOLU - KLNK

TAF KGRI 191730Z 1918/2018 VRB04KT P6SM VCSH SCT015 BKN025 BKN120 FM192100 VRB05KT P6SM BKN035 BKN120 FM200100 16006KT P6SM FEW250 FM200800 18010KT P6SM SCT100 FM201400 21013G20KT P6SM SKC FM201700 31014G20KT P6SM SKC